Terminal Aerodrome Forecast
Issued by NWS

Home | Current Version | Previous Version | Text Only | Print | Product List | Glossary On
Versions: 1 2 3 4 5 6 7 8 9 10 11 12 13 14 15 16 17 18 19 20 21 22 23 24
000
FTPA31 PHFO 230500
TAFOGG
TAF
PHOG 230535Z 2306/2406 06012G25KT P6SM FEW030 SCT050 SCT200
      TEMPO 2313/2317 06012KT
     FM232100 06020G30KT P6SM FEW030 SCT050
     FM240400 06012G22KT P6SM FEW030 SCT050
      AMD LTD TO WX VIS AND WIND 2309/2316=

USA.gov is the U.S. government's official web portal to all federal, state and local government web resources and services.